createdAt,value
2018-10-18T00:00:28.055Z,95658.00
2018-10-18T00:05:33.768Z,95654.90
2018-10-18T00:08:03.823Z,95656.99
2018-10-18T00:10:32.849Z,95657.63
2018-10-18T00:13:01.909Z,95661.26
2018-10-18T00:15:30.948Z,95657.17
2018-10-18T00:20:35.677Z,95658.53
2018-10-18T00:23:04.740Z,95660.55
2018-10-18T00:25:33.801Z,95660.94
2018-10-18T00:28:02.869Z,95659.98
2018-10-18T00:30:31.945Z,95660.08
2018-10-18T00:33:01.004Z,95659.08
2018-10-18T00:35:31.074Z,95657.57
2018-10-18T00:38:00.134Z,95658.34
2018-10-18T00:40:29.156Z,95656.00
2018-10-18T00:42:59.159Z,95655.09
2018-10-18T00:45:29.120Z,95656.13
2018-10-18T00:47:58.208Z,95651.34
2018-10-18T00:53:03.970Z,95651.61
2018-10-18T00:55:33.015Z,95648.16
2018-10-18T01:00:38.738Z,95646.77
2018-10-18T01:03:07.810Z,95648.49
2018-10-18T01:05:36.867Z,95649.42
2018-10-18T01:08:05.921Z,95645.44
2018-10-18T01:10:34.940Z,95646.84
2018-10-18T01:13:03.993Z,95649.09
2018-10-18T01:18:08.831Z,95649.91
2018-10-18T01:20:37.825Z,95643.83
2018-10-18T01:23:06.865Z,95641.67
2018-10-18T01:25:35.912Z,95642.78
2018-10-18T01:28:05.916Z,95646.34
2018-10-18T01:30:34.979Z,95641.02
2018-10-18T01:33:04.073Z,95638.81
2018-10-18T01:38:08.953Z,95641.06
2018-10-18T01:40:37.959Z,95631.56
2018-10-18T01:43:06.991Z,95631.22
2018-10-18T01:48:11.965Z,95631.05
2018-10-18T01:50:40.933Z,95628.38
2018-10-18T01:53:09.991Z,95625.50
2018-10-18T01:55:39.055Z,95623.09
2018-10-18T01:58:08.101Z,95626.21
2018-10-18T02:00:37.183Z,95622.06
2018-10-18T02:05:43.980Z,95627.39
2018-10-18T02:08:13.226Z,95620.67
2018-10-18T02:14:10.090Z,95622.51
2018-10-18T02:16:39.129Z,95621.80
2018-10-18T02:19:10.224Z,95620.60
2018-10-18T02:21:39.208Z,95620.63
2018-10-18T02:24:08.274Z,95620.45
2018-10-18T02:26:37.308Z,95621.80
2018-10-18T02:29:06.357Z,95624.60
2018-10-18T02:31:35.404Z,95619.70
2018-10-18T02:34:04.454Z,95625.08
2018-10-18T02:36:33.509Z,95623.90
2018-10-18T02:39:02.556Z,95620.08
2018-10-18T02:44:08.334Z,95618.73
2018-10-18T02:46:38.351Z,95614.11
2018-10-18T02:49:07.412Z,95618.83
2018-10-18T02:54:12.156Z,95618.44
2018-10-18T02:56:41.206Z,95619.11
2018-10-18T02:59:10.260Z,95615.24
2018-10-18T03:01:39.304Z,95617.87
2018-10-18T03:04:08.344Z,95619.98
2018-10-18T03:09:13.233Z,95620.67
2018-10-18T03:11:43.256Z,95621.31
2018-10-18T03:16:48.978Z,95618.84
2018-10-18T03:19:18.962Z,95623.09
2018-10-18T03:21:50.155Z,95624.49
2018-10-18T03:24:20.122Z,95633.20
2018-10-18T03:29:24.926Z,95631.27
2018-10-18T03:34:29.681Z,95641.76
2018-10-18T03:39:34.429Z,95636.94
2018-10-18T03:44:40.145Z,95640.80
2018-10-18T03:47:09.196Z,95639.39
2018-10-18T03:49:38.246Z,95642.19
2018-10-18T03:52:07.288Z,95642.14
2018-10-18T03:54:38.276Z,95643.00
2018-10-18T03:59:43.208Z,95637.70
2018-10-18T04:02:12.117Z,95639.92
2018-10-18T04:04:41.204Z,95634.33
2018-10-18T04:07:10.251Z,95629.52
2018-10-18T04:09:40.246Z,95630.44
2018-10-18T04:14:45.041Z,95636.34
2018-10-18T04:17:17.988Z,95630.91
2018-10-18T04:19:47.029Z,95627.00
2018-10-18T04:22:16.077Z,95624.89
2018-10-18T04:27:20.884Z,95627.40
2018-10-18T04:29:49.921Z,95622.34
2018-10-18T04:32:19.022Z,95625.22
2018-10-18T04:37:23.973Z,95623.24
2018-10-18T04:42:28.687Z,95623.58
2018-10-18T04:47:33.482Z,95624.97
2018-10-18T04:50:02.484Z,95624.05
2018-10-18T04:55:07.367Z,95628.64
2018-10-18T04:57:36.329Z,95630.52
2018-10-18T05:02:41.679Z,95629.06
2018-10-18T05:08:16.854Z,95624.22
2018-10-18T05:10:46.860Z,95629.59
2018-10-18T05:13:17.038Z,95629.65
2018-10-18T05:15:46.029Z,95633.42
2018-10-18T05:20:50.767Z,95638.33
2018-10-18T05:23:19.830Z,95639.63
2018-10-18T05:25:48.872Z,95641.39
2018-10-18T05:30:53.679Z,95637.15
2018-10-18T05:35:58.395Z,95639.27
2018-10-18T05:38:29.476Z,95647.24
2018-10-18T05:40:59.481Z,95650.37
2018-10-18T05:43:28.533Z,95647.24
2018-10-18T05:45:57.585Z,95646.73
2018-10-18T05:48:27.630Z,95649.83
2018-10-18T05:51:00.510Z,95656.66
2018-10-18T05:56:06.309Z,95659.22
2018-10-18T05:58:35.365Z,95661.55
2018-10-18T06:01:06.425Z,95664.14
2018-10-18T06:06:13.119Z,95671.64
2018-10-18T06:08:42.188Z,95676.91
2018-10-18T06:11:22.637Z,95679.47
2018-10-18T06:13:51.684Z,95682.05
2018-10-18T06:16:20.724Z,95689.21
2018-10-18T06:18:49.773Z,95685.69
2018-10-18T06:21:18.816Z,95696.63
2018-10-18T06:23:47.862Z,95699.89
2018-10-18T06:26:16.905Z,95703.38
2018-10-18T06:31:21.654Z,95704.14
2018-10-18T06:36:26.382Z,95709.03
2018-10-18T06:39:04.273Z,95714.88
2018-10-18T06:44:09.033Z,95720.71
2018-10-18T06:46:38.405Z,95721.16
2018-10-18T06:49:07.545Z,95725.91
2018-10-18T06:51:36.501Z,95727.48
2018-10-18T06:54:05.603Z,95722.48
2018-10-18T06:59:10.621Z,95721.73
2018-10-18T07:01:41.644Z,95726.25
2018-10-18T07:06:46.382Z,95726.09
2018-10-18T07:09:15.741Z,95728.47
2018-10-18T07:11:49.178Z,95728.70
2018-10-18T07:14:19.165Z,95728.03
2018-10-18T07:16:50.607Z,95734.05
2018-10-18T07:19:20.429Z,95734.08
2018-10-18T07:21:54.438Z,95732.97
2018-10-18T07:27:03.116Z,95733.13
2018-10-18T07:29:32.382Z,95735.83
2018-10-18T07:34:37.193Z,95733.98
2018-10-18T07:39:41.952Z,95730.27
2018-10-18T07:42:11.026Z,95730.98
2018-10-18T07:44:41.010Z,95725.75
2018-10-18T07:47:10.076Z,95727.23
2018-10-18T07:49:39.124Z,95725.87
2018-10-18T07:52:08.192Z,95721.72
2018-10-18T07:57:13.015Z,95723.34
2018-10-18T07:59:42.065Z,95726.67
2018-10-18T08:02:11.268Z,95728.58
2018-10-18T08:04:40.353Z,95730.36
2018-10-18T08:07:09.487Z,95731.83
2018-10-18T08:09:38.791Z,95733.98
2018-10-18T08:12:07.846Z,95732.55
2018-10-18T08:14:36.889Z,95735.50
2018-10-18T08:17:09.153Z,95740.86
2018-10-18T08:19:38.211Z,95739.58
2018-10-18T08:22:09.193Z,95745.58
2018-10-18T08:24:38.248Z,95744.00
2018-10-18T08:27:07.310Z,95742.80
2018-10-18T08:29:37.067Z,95740.70
2018-10-18T08:32:09.939Z,95738.63
2018-10-18T08:34:38.978Z,95738.36
2018-10-18T08:37:08.181Z,95733.34
2018-10-18T08:39:37.189Z,95740.00
2018-10-18T08:42:06.256Z,95740.34
2018-10-18T08:44:35.508Z,95739.72
2018-10-18T08:47:04.386Z,95744.33
2018-10-18T08:49:33.440Z,95740.27
2018-10-18T08:52:03.497Z,95742.92
2018-10-18T08:57:08.302Z,95741.14
2018-10-18T08:59:37.513Z,95739.19
2018-10-18T09:02:06.588Z,95746.69
2018-10-18T09:04:35.625Z,95740.31
2018-10-18T09:07:04.804Z,95742.08
2018-10-18T09:09:33.821Z,95751.52
2018-10-18T09:14:38.645Z,95744.36
2018-10-18T09:17:07.701Z,95741.25
2018-10-18T09:19:36.765Z,95737.58
2018-10-18T09:24:41.622Z,95728.54
2018-10-18T09:27:10.679Z,95733.16
2018-10-18T09:29:40.699Z,95729.63
2018-10-18T09:32:09.749Z,95732.34
2018-10-18T09:34:38.800Z,95738.96
2018-10-18T09:37:08.033Z,95738.25
2018-10-18T09:39:37.072Z,95734.04
2018-10-18T09:44:42.003Z,95730.33
2018-10-18T09:54:59.864Z,95726.33
2018-10-18T09:57:28.878Z,95723.42
2018-10-18T09:59:58.842Z,95722.82
2018-10-18T10:02:29.009Z,95723.47
2018-10-18T10:07:33.949Z,95716.77
2018-10-18T10:10:07.134Z,95722.87
2018-10-18T10:12:36.162Z,95713.89
2018-10-18T10:15:05.235Z,95714.88
2018-10-18T10:17:34.370Z,95713.25
2018-10-18T10:20:03.345Z,95712.00
2018-10-18T10:22:34.323Z,95707.16
2018-10-18T10:27:39.242Z,95702.81
2018-10-18T10:30:08.360Z,95698.88
2018-10-18T10:32:38.302Z,95709.00
2018-10-18T10:35:07.386Z,95708.38
2018-10-18T10:37:40.379Z,95698.57
2018-10-18T10:42:45.387Z,95696.36
2018-10-18T10:45:14.539Z,95689.50
2018-10-18T10:47:44.476Z,95688.16
2018-10-18T10:50:13.564Z,95687.70
2018-10-18T10:52:42.602Z,95684.53
2018-10-18T10:55:11.665Z,95680.62
2018-10-18T10:57:40.722Z,95677.46
2018-10-18T11:00:09.835Z,95676.70
2018-10-18T11:02:39.046Z,95676.78
2018-10-18T11:05:11.437Z,95672.03
2018-10-18T11:07:41.491Z,95671.30
2018-10-18T11:10:11.485Z,95664.95
2018-10-18T11:12:40.551Z,95668.03
2018-10-18T11:15:09.753Z,95669.42
2018-10-18T11:17:38.782Z,95664.95
2018-10-18T11:20:07.881Z,95667.71
2018-10-18T11:22:36.944Z,95666.33
2018-10-18T11:25:06.009Z,95662.63
2018-10-18T11:27:35.079Z,95665.05
2018-10-18T11:30:04.201Z,95661.10
2018-10-18T11:32:33.213Z,95654.89
2018-10-18T11:35:03.194Z,95658.06
2018-10-18T11:37:34.241Z,95655.16
2018-10-18T11:40:03.291Z,95652.42
2018-10-18T11:42:32.459Z,95648.09
2018-10-18T11:45:02.462Z,95647.92
2018-10-18T11:47:31.525Z,95649.44
2018-10-18T11:50:00.635Z,95648.73
2018-10-18T11:52:29.634Z,95645.06
2018-10-18T11:57:34.574Z,95641.27
2018-10-18T12:00:03.768Z,95636.39
2018-10-18T12:02:32.817Z,95638.66
2018-10-18T12:05:01.932Z,95635.98
2018-10-18T12:07:33.978Z,95636.11
2018-10-18T12:10:07.084Z,95629.41
2018-10-18T12:12:37.045Z,95625.45
2018-10-18T12:15:07.115Z,95623.02
2018-10-18T12:17:36.255Z,95628.20
2018-10-18T12:22:41.124Z,95619.25
2018-10-18T12:25:11.199Z,95616.90
2018-10-18T12:27:40.260Z,95614.08
2018-10-18T12:30:09.328Z,95612.33
2018-10-18T12:32:38.377Z,95615.48
2018-10-18T12:35:07.558Z,95616.24
2018-10-18T12:37:36.498Z,95623.28
2018-10-18T12:40:05.598Z,95617.45
2018-10-18T12:42:34.629Z,95625.94
2018-10-18T12:45:03.861Z,95619.77
2018-10-18T12:47:32.909Z,95617.39
2018-10-18T12:50:02.062Z,95620.23
2018-10-18T12:52:31.995Z,95615.31
2018-10-18T12:55:01.053Z,95619.41
2018-10-18T12:57:30.117Z,95612.19
2018-10-18T12:59:59.221Z,95613.53
2018-10-18T13:02:28.300Z,95617.63
2018-10-18T13:10:08.847Z,95613.88
2018-10-18T13:12:39.244Z,95609.63
2018-10-18T13:15:08.106Z,95604.89
2018-10-18T13:17:37.161Z,95603.45
2018-10-18T13:20:08.193Z,95611.51
2018-10-18T13:22:37.223Z,95605.59
2018-10-18T13:27:42.226Z,95612.46
2018-10-18T13:30:11.513Z,95611.17
2018-10-18T13:32:40.442Z,95614.98
2018-10-18T13:35:11.465Z,95611.75
2018-10-18T13:37:40.541Z,95611.25
2018-10-18T13:40:09.593Z,95611.30
2018-10-18T13:45:14.370Z,95611.97
2018-10-18T13:50:19.244Z,95613.89
2018-10-18T13:52:49.333Z,95621.95
2018-10-18T13:55:22.443Z,95616.66
2018-10-18T13:57:51.496Z,95615.09
2018-10-18T14:00:20.692Z,95617.93
2018-10-18T14:02:49.668Z,95618.75
2018-10-18T14:07:58.267Z,95613.47
2018-10-18T14:10:28.281Z,95610.72
2018-10-18T14:12:58.357Z,95608.08
2018-10-18T14:18:03.264Z,95613.05
2018-10-18T14:20:32.327Z,95614.54
2018-10-18T14:23:01.437Z,95612.60
2018-10-18T14:25:30.463Z,95610.16
2018-10-18T14:27:59.532Z,95608.68
2018-10-18T14:30:28.684Z,95606.30
2018-10-18T14:32:59.629Z,95608.83
2018-10-18T14:35:28.698Z,95609.94
2018-10-18T14:37:59.687Z,95606.92
2018-10-18T14:40:28.786Z,95609.32
2018-10-18T14:42:58.801Z,95603.17
2018-10-18T14:45:27.859Z,95603.79
2018-10-18T14:47:58.888Z,95601.42
2018-10-18T14:50:30.119Z,95596.89
2018-10-18T14:52:59.121Z,95599.51
2018-10-18T14:55:30.129Z,95602.39
2018-10-18T14:57:59.188Z,95603.53
2018-10-18T15:00:29.264Z,95601.84
2018-10-18T15:02:58.335Z,95601.10
2018-10-18T15:08:05.243Z,95602.13
2018-10-18T15:10:34.266Z,95600.31
2018-10-18T15:13:03.323Z,95606.55
2018-10-18T15:15:32.519Z,95610.19
2018-10-18T15:18:05.751Z,95612.80
2018-10-18T15:20:34.995Z,95613.00
2018-10-18T15:28:15.608Z,95617.33
2018-10-18T15:30:44.669Z,95619.25
2018-10-18T15:33:13.781Z,95615.51
2018-10-18T15:35:42.794Z,95623.88
2018-10-18T15:38:13.905Z,95623.09
2018-10-18T15:40:42.875Z,95623.42
2018-10-18T15:43:11.928Z,95625.72
2018-10-18T15:48:16.802Z,95626.63
2018-10-18T15:50:47.793Z,95629.95
2018-10-18T15:53:16.885Z,95635.19
2018-10-18T15:55:45.913Z,95632.36
2018-10-18T15:58:16.962Z,95636.86
2018-10-18T16:00:46.037Z,95644.28
2018-10-18T16:05:51.801Z,95644.06
2018-10-18T16:11:02.617Z,95651.23
2018-10-18T16:16:07.386Z,95658.09
2018-10-18T16:18:36.444Z,95659.56
2018-10-18T16:21:06.549Z,95659.14
2018-10-18T16:23:35.620Z,95658.83
2018-10-18T16:26:04.768Z,95665.31
2018-10-18T16:28:33.749Z,95670.59
2018-10-18T16:31:02.805Z,95672.78
2018-10-18T16:33:31.932Z,95676.45
2018-10-18T16:41:12.773Z,95686.16
2018-10-18T16:43:42.581Z,95695.77
2018-10-18T16:46:11.688Z,95697.81
2018-10-18T16:48:40.672Z,95701.47
2018-10-18T16:51:11.722Z,95701.11
2018-10-18T16:53:40.764Z,95707.07
2018-10-18T16:56:10.770Z,95711.43
2018-10-18T16:58:39.786Z,95711.37
2018-10-18T17:01:08.831Z,95715.08
2018-10-18T17:03:37.887Z,95714.23
2018-10-18T17:06:06.983Z,95719.38
2018-10-18T17:08:36.941Z,95719.32
2018-10-18T17:11:05.998Z,95723.88
2018-10-18T17:13:35.052Z,95727.88
2018-10-18T17:16:04.180Z,95732.28
2018-10-18T17:18:33.159Z,95736.16
2018-10-18T17:21:02.281Z,95737.41
2018-10-18T17:23:32.280Z,95743.95
2018-10-18T17:26:01.409Z,95743.44
2018-10-18T17:28:30.401Z,95742.88
2018-10-18T17:30:59.479Z,95746.11
2018-10-18T17:33:29.489Z,95739.84
2018-10-18T17:35:58.594Z,95742.69
2018-10-18T17:38:28.589Z,95742.08
2018-10-18T17:40:57.658Z,95744.72
2018-10-18T17:43:26.715Z,95749.59
2018-10-18T17:45:55.844Z,95751.32
2018-10-18T17:48:25.823Z,95752.64
2018-10-18T17:50:56.781Z,95756.33
2018-10-18T17:53:26.789Z,95758.01
2018-10-18T17:55:55.843Z,95755.09
2018-10-18T17:58:24.896Z,95758.19
2018-10-18T18:00:53.944Z,95755.95
2018-10-18T18:03:23.001Z,95756.98
2018-10-18T18:05:52.103Z,95766.00
2018-10-18T18:08:23.023Z,95764.55
2018-10-18T18:10:52.069Z,95764.84
2018-10-18T18:13:22.049Z,95768.38
2018-10-18T18:15:54.642Z,95768.05
2018-10-18T18:18:23.680Z,95769.92
2018-10-18T18:20:52.732Z,95770.98
2018-10-18T18:23:22.840Z,95774.28
2018-10-18T18:25:51.882Z,95776.13
2018-10-18T18:28:20.935Z,95777.71
2018-10-18T18:30:49.997Z,95778.63
2018-10-18T18:33:19.057Z,95775.28
2018-10-18T18:35:48.118Z,95782.91
2018-10-18T18:38:17.168Z,95785.25
2018-10-18T18:43:21.921Z,95790.64
2018-10-18T18:45:50.986Z,95795.53
2018-10-18T18:48:20.026Z,95808.00
2018-10-18T18:50:49.140Z,95807.24
2018-10-18T18:53:18.204Z,95806.30
2018-10-18T18:55:47.190Z,95810.19
2018-10-18T18:58:16.243Z,95811.57
2018-10-18T19:00:45.305Z,95812.05
2018-10-18T19:03:14.400Z,95813.11
2018-10-18T19:08:20.149Z,95815.63
2018-10-18T19:10:49.223Z,95810.84
2018-10-18T19:13:19.387Z,95812.98
2018-10-18T19:15:48.393Z,95817.27
2018-10-18T19:18:17.473Z,95818.14
2018-10-18T19:20:46.507Z,95815.05
2018-10-18T19:23:15.560Z,95821.73
2018-10-18T19:25:44.705Z,95824.18
2018-10-18T19:28:17.850Z,95819.80
2018-10-18T19:30:46.941Z,95826.02
2018-10-18T19:33:15.982Z,95828.98
2018-10-18T19:35:46.990Z,95824.56
2018-10-18T19:38:16.220Z,95823.78
2018-10-18T19:40:45.232Z,95823.73
2018-10-18T19:43:14.288Z,95825.14
2018-10-18T19:45:43.398Z,95824.80
2018-10-18T19:50:48.087Z,95827.42
2018-10-18T19:55:52.853Z,95828.66
2018-10-18T19:58:22.829Z,95827.87
2018-10-18T20:00:51.905Z,95825.71
2018-10-18T20:03:20.964Z,95827.23
2018-10-18T20:05:50.006Z,95821.17
2018-10-18T20:08:19.141Z,95826.74
2018-10-18T20:10:48.115Z,95821.66
2018-10-18T20:13:17.179Z,95820.20
2018-10-18T20:15:46.240Z,95820.17
2018-10-18T20:18:15.370Z,95819.88
2018-10-18T20:20:44.321Z,95819.13
2018-10-18T20:23:13.401Z,95817.02
2018-10-18T20:25:42.616Z,95820.52
2018-10-18T20:28:13.905Z,95828.43
2018-10-18T20:30:43.869Z,95824.58
2018-10-18T20:33:12.983Z,95831.81
2018-10-18T20:35:41.983Z,95836.30
2018-10-18T20:38:11.006Z,95835.04
2018-10-18T20:40:42.020Z,95835.55
2018-10-18T20:43:11.057Z,95844.30
2018-10-18T20:48:15.791Z,95837.03
2018-10-18T20:50:44.848Z,95835.20
2018-10-18T20:53:13.955Z,95843.64
2018-10-18T20:58:18.677Z,95843.78
2018-10-18T21:00:47.725Z,95836.80
2018-10-18T21:03:17.929Z,95836.33
2018-10-18T21:05:46.971Z,95838.43
2018-10-18T21:10:51.718Z,95842.13
2018-10-18T21:15:56.477Z,95835.87
2018-10-18T21:21:01.226Z,95837.42
2018-10-18T21:26:05.964Z,95837.69
2018-10-18T21:28:35.026Z,95832.33
2018-10-18T21:31:04.133Z,95836.02
2018-10-18T21:33:33.176Z,95840.20
2018-10-18T21:36:02.237Z,95839.34
2018-10-18T21:38:32.355Z,95838.05
2018-10-18T21:41:01.452Z,95841.71
2018-10-18T21:43:30.435Z,95835.62
2018-10-18T21:46:00.228Z,95839.72
2018-10-18T21:48:29.282Z,95831.31
2018-10-18T21:50:59.326Z,95832.20
2018-10-18T21:53:28.319Z,95833.53
2018-10-18T21:55:57.364Z,95832.61
2018-10-18T21:58:26.445Z,95835.62
2018-10-18T22:00:55.941Z,95835.47
2018-10-18T22:03:26.028Z,95840.34
2018-10-18T22:05:55.094Z,95833.03
2018-10-18T22:08:24.154Z,95830.73
2018-10-18T22:13:28.884Z,95826.26
2018-10-18T22:15:57.951Z,95831.81
2018-10-18T22:18:26.998Z,95834.16
2018-10-18T22:20:56.101Z,95831.13
2018-10-18T22:23:25.137Z,95831.03
2018-10-18T22:28:29.937Z,95832.77
2018-10-18T22:30:58.992Z,95833.23
2018-10-18T22:33:28.048Z,95830.89
2018-10-18T22:35:58.113Z,95829.00
2018-10-18T22:38:27.229Z,95828.95
2018-10-18T22:40:56.288Z,95828.83
2018-10-18T22:43:25.314Z,95828.29
2018-10-18T22:45:54.361Z,95826.24
2018-10-18T22:50:59.116Z,95826.95
2018-10-18T22:53:28.153Z,95823.59
2018-10-18T22:55:57.201Z,95823.12
2018-10-18T22:58:26.247Z,95824.83
2018-10-18T23:00:55.345Z,95822.11
2018-10-18T23:03:24.369Z,95823.28
2018-10-18T23:05:53.422Z,95814.62
2018-10-18T23:08:22.465Z,95818.33
2018-10-18T23:10:51.509Z,95811.22
2018-10-18T23:13:20.561Z,95812.62
2018-10-18T23:15:49.597Z,95810.39
2018-10-18T23:18:18.653Z,95809.64
2018-10-18T23:20:47.713Z,95815.58
2018-10-18T23:23:16.829Z,95811.97
2018-10-18T23:25:45.829Z,95815.15
2018-10-18T23:28:14.857Z,95811.83
2018-10-18T23:30:44.854Z,95812.72
2018-10-18T23:33:14.913Z,95808.25
2018-10-18T23:38:19.675Z,95805.17
2018-10-18T23:40:48.723Z,95805.45
2018-10-18T23:43:19.878Z,95805.92
2018-10-18T23:45:48.958Z,95805.98
2018-10-18T23:48:18.018Z,95804.96
2018-10-18T23:50:47.064Z,95804.69
2018-10-18T23:53:16.117Z,95799.95
2018-10-18T23:55:45.169Z,95800.55
2018-10-18T23:58:14.215Z,95800.52
